createdAt,value
2023-02-13T00:00:38.046Z,14.75
2023-02-13T00:03:05.720Z,13.60
2023-02-13T00:05:33.244Z,10.38
2023-02-13T00:08:00.717Z,14.63
2023-02-13T00:10:28.274Z,11.85
2023-02-13T00:12:55.800Z,17.20
2023-02-13T00:15:23.287Z,14.35
2023-02-13T00:17:51.020Z,14.05
2023-02-13T00:20:18.638Z,16.30
2023-02-13T00:22:46.042Z,15.02
2023-02-13T00:25:13.585Z,12.57
2023-02-13T00:27:41.045Z,13.18
2023-02-13T00:30:09.204Z,12.38
2023-02-13T00:32:36.861Z,16.17
2023-02-13T00:35:04.550Z,11.15
2023-02-13T00:37:34.151Z,16.80
2023-02-13T00:40:01.688Z,17.23
2023-02-13T00:42:29.223Z,14.32
2023-02-13T00:44:56.666Z,15.57
2023-02-13T00:47:24.121Z,11.88
2023-02-13T00:49:51.686Z,13.45
2023-02-13T00:52:19.101Z,13.70
2023-02-13T00:54:47.773Z,13.82
2023-02-13T00:57:15.164Z,14.63
2023-02-13T00:59:43.349Z,19.20
2023-02-13T01:02:10.815Z,17.63
2023-02-13T01:04:39.082Z,16.83
2023-02-13T01:07:06.538Z,17.70
2023-02-13T01:09:35.631Z,20.23
2023-02-13T01:12:03.198Z,18.73
2023-02-13T01:14:30.668Z,23.08
2023-02-13T01:16:58.273Z,16.27
2023-02-13T01:19:25.834Z,19.00
2023-02-13T01:21:53.252Z,15.80
2023-02-13T01:24:20.692Z,17.23
2023-02-13T01:26:48.203Z,15.63
2023-02-13T01:29:15.688Z,13.52
2023-02-13T01:31:43.188Z,17.52
2023-02-13T01:34:10.766Z,16.10
2023-02-13T01:36:38.287Z,22.52
2023-02-13T01:39:05.732Z,20.95
2023-02-13T01:41:33.236Z,17.35
2023-02-13T01:44:02.285Z,20.23
2023-02-13T01:46:38.831Z,20.08
2023-02-13T01:49:14.149Z,17.73
2023-02-13T01:51:43.444Z,21.48
2023-02-13T01:54:18.385Z,22.58
2023-02-13T01:56:52.024Z,20.83
2023-02-13T02:01:49.142Z,17.63
2023-02-13T02:04:27.515Z,20.90
2023-02-13T02:07:03.257Z,25.10
2023-02-13T02:09:39.501Z,21.23
2023-02-13T02:12:28.700Z,23.95
2023-02-13T02:14:58.294Z,24.90
2023-02-13T02:17:27.370Z,20.20
2023-02-13T02:20:09.947Z,25.80
2023-02-13T02:23:05.098Z,20.27
2023-02-13T02:25:58.429Z,18.92
2023-02-13T02:28:31.844Z,18.10
2023-02-13T02:31:12.499Z,20.30
2023-02-13T02:34:00.184Z,18.30
2023-02-13T02:36:50.156Z,18.90
2023-02-13T02:39:30.984Z,22.90
2023-02-13T02:42:14.339Z,24.95
2023-02-13T02:44:58.613Z,20.35
2023-02-13T02:47:51.607Z,22.55
2023-02-13T02:50:39.613Z,21.27
2023-02-13T02:53:34.846Z,23.77
2023-02-13T02:56:20.671Z,26.10
2023-02-13T02:59:11.266Z,22.60
2023-02-13T03:01:59.376Z,23.00
2023-02-13T03:04:57.247Z,21.13
2023-02-13T03:07:24.752Z,19.33
2023-02-13T03:10:14.287Z,16.75
2023-02-13T03:13:22.790Z,20.17
2023-02-13T03:16:16.124Z,18.08
2023-02-13T03:19:06.104Z,19.73
2023-02-13T03:22:14.262Z,17.48
2023-02-13T03:25:05.526Z,15.82
2023-02-13T03:28:06.647Z,19.08
2023-02-13T03:30:56.973Z,17.77
2023-02-13T03:33:39.829Z,16.92
2023-02-13T03:36:34.992Z,17.52
2023-02-13T03:39:11.435Z,15.32
2023-02-13T03:41:56.073Z,15.88
2023-02-13T03:44:32.183Z,20.80
2023-02-13T03:47:03.056Z,16.90
2023-02-13T03:50:01.978Z,13.00
2023-02-13T03:52:58.232Z,18.65
2023-02-13T03:55:55.315Z,19.80
2023-02-13T03:58:56.449Z,16.20
2023-02-13T04:01:32.720Z,17.65
2023-02-13T04:04:14.409Z,14.57
2023-02-13T04:07:30.814Z,17.40
2023-02-13T04:10:18.376Z,21.20
2023-02-13T04:12:52.395Z,18.02
2023-02-13T04:15:37.343Z,16.23
2023-02-13T04:18:20.232Z,17.75
2023-02-13T04:20:48.167Z,15.77
2023-02-13T04:23:16.347Z,19.77
2023-02-13T04:25:48.697Z,16.67
2023-02-13T04:28:16.412Z,16.15
2023-02-13T04:30:43.986Z,17.98
2023-02-13T04:33:11.593Z,18.90
2023-02-13T04:35:39.064Z,17.50
2023-02-13T04:38:06.562Z,18.65
2023-02-13T04:40:34.078Z,20.33
2023-02-13T04:43:01.562Z,18.35
2023-02-13T04:45:28.928Z,20.33
2023-02-13T04:47:57.517Z,18.13
2023-02-13T04:50:25.994Z,16.70
2023-02-13T04:52:58.366Z,17.38
2023-02-13T04:55:27.449Z,20.50
2023-02-13T04:57:56.047Z,13.73
2023-02-13T05:00:26.909Z,16.30
2023-02-13T05:02:54.751Z,18.52
2023-02-13T05:05:22.178Z,15.15
2023-02-13T05:07:49.608Z,16.38
2023-02-13T05:10:17.197Z,19.13
2023-02-13T05:12:44.624Z,16.83
2023-02-13T05:15:12.327Z,18.33
2023-02-13T05:17:39.794Z,22.98
2023-02-13T05:20:07.723Z,18.50
2023-02-13T05:22:53.784Z,27.85
2023-02-13T05:25:21.567Z,17.92
2023-02-13T05:27:49.017Z,22.98
2023-02-13T05:30:16.469Z,18.95
2023-02-13T05:32:44.099Z,20.02
2023-02-13T05:35:11.941Z,28.23
2023-02-13T05:37:39.337Z,24.13
2023-02-13T05:40:07.488Z,22.33
2023-02-13T05:42:34.968Z,20.38
2023-02-13T05:45:02.478Z,18.08
2023-02-13T05:47:29.976Z,19.50
2023-02-13T05:49:57.517Z,17.77
2023-02-13T05:52:24.995Z,23.63
2023-02-13T05:54:52.540Z,23.08
2023-02-13T05:57:20.008Z,19.42
2023-02-13T05:59:47.521Z,18.27
2023-02-13T06:02:15.014Z,19.52
2023-02-13T06:04:42.550Z,25.10
2023-02-13T06:07:10.024Z,23.88
2023-02-13T06:09:37.537Z,23.20
2023-02-13T06:12:05.248Z,24.88
2023-02-13T06:14:32.660Z,20.48
2023-02-13T06:17:01.686Z,25.05
2023-02-13T06:19:29.158Z,23.35
2023-02-13T06:21:56.704Z,25.85
2023-02-13T06:24:24.206Z,23.10
2023-02-13T06:26:51.671Z,21.50
2023-02-13T06:29:19.182Z,21.58
2023-02-13T06:31:46.786Z,25.50
2023-02-13T06:34:14.412Z,25.60
2023-02-13T06:36:42.707Z,22.83
2023-02-13T06:39:11.240Z,20.35
2023-02-13T06:41:38.703Z,32.05
2023-02-13T06:44:07.946Z,28.20
2023-02-13T06:46:35.515Z,29.92
2023-02-13T06:49:03.127Z,37.05
2023-02-13T06:51:30.593Z,25.77
2023-02-13T06:53:58.159Z,70.45
2023-02-13T06:56:26.482Z,39.70
2023-02-13T06:58:53.956Z,44.03
2023-02-13T07:01:21.667Z,38.63
2023-02-13T07:03:49.210Z,34.90
2023-02-13T07:06:20.943Z,40.45
2023-02-13T07:08:51.357Z,37.42
2023-02-13T07:11:20.134Z,37.03
2023-02-13T07:13:47.619Z,47.47
2023-02-13T07:16:15.365Z,57.20
2023-02-13T07:18:42.790Z,53.63
2023-02-13T07:21:10.289Z,54.15
2023-02-13T07:23:37.690Z,51.85
2023-02-13T07:26:05.467Z,47.28
2023-02-13T07:28:33.118Z,47.38
2023-02-13T07:31:05.928Z,46.47
2023-02-13T07:33:34.427Z,43.65
2023-02-13T07:36:03.650Z,47.13
2023-02-13T07:38:32.388Z,55.95
2023-02-13T07:41:03.756Z,48.55
2023-02-13T07:43:31.245Z,47.22
2023-02-13T07:46:00.246Z,50.35
2023-02-13T07:48:29.155Z,45.92
2023-02-13T07:51:01.400Z,46.05
2023-02-13T07:53:29.208Z,52.50
2023-02-13T07:55:57.029Z,45.05
2023-02-13T07:58:24.684Z,53.97
2023-02-13T08:00:52.188Z,48.10
2023-02-13T08:03:19.591Z,44.13
2023-02-13T08:05:49.054Z,50.15
2023-02-13T08:08:17.345Z,53.90
2023-02-13T08:11:03.561Z,51.78
2023-02-13T08:13:31.778Z,49.05
2023-02-13T08:15:59.440Z,47.05
2023-02-13T08:18:26.902Z,51.53
2023-02-13T08:20:54.412Z,51.65
2023-02-13T08:23:21.909Z,50.95
2023-02-13T08:25:49.870Z,45.63
2023-02-13T08:28:17.522Z,38.65
2023-02-13T08:30:45.092Z,38.30
2023-02-13T08:33:12.951Z,32.72
2023-02-13T08:35:40.383Z,29.02
2023-02-13T08:38:07.932Z,32.15
2023-02-13T08:40:35.450Z,27.08
2023-02-13T08:43:04.900Z,29.45
2023-02-13T08:45:34.035Z,32.40
2023-02-13T08:48:04.098Z,28.92
2023-02-13T08:50:31.908Z,29.63
2023-02-13T08:53:00.034Z,29.73
2023-02-13T08:55:29.817Z,29.75
2023-02-13T08:58:00.993Z,31.52
2023-02-13T09:00:28.945Z,33.28
2023-02-13T09:03:02.065Z,33.35
2023-02-13T09:05:31.684Z,37.85
2023-02-13T09:08:03.801Z,32.72
2023-02-13T09:12:59.439Z,35.78
2023-02-13T09:15:27.147Z,42.78
2023-02-13T09:17:54.587Z,36.63
2023-02-13T09:20:22.102Z,29.65
2023-02-13T09:22:49.534Z,39.38
2023-02-13T09:25:17.346Z,34.80
2023-02-13T09:27:44.839Z,41.03
2023-02-13T09:30:15.265Z,36.33
2023-02-13T09:32:42.750Z,39.42
2023-02-13T09:35:11.194Z,37.22
2023-02-13T09:37:38.664Z,47.95
2023-02-13T09:40:15.528Z,47.92
2023-02-13T09:42:45.063Z,47.20
2023-02-13T09:45:14.157Z,42.38
2023-02-13T09:47:45.557Z,46.25
2023-02-13T09:50:19.868Z,43.93
2023-02-13T09:52:49.570Z,35.95
2023-02-13T09:55:18.848Z,40.50
2023-02-13T09:58:16.392Z,33.03
2023-02-13T10:00:51.686Z,34.78
2023-02-13T10:03:29.104Z,33.63
2023-02-13T10:06:00.592Z,37.90
2023-02-13T10:08:31.486Z,35.15
2023-02-13T10:10:58.950Z,34.47
2023-02-13T10:13:31.638Z,39.60
2023-02-13T10:16:25.689Z,37.53
2023-02-13T10:18:55.537Z,37.45
2023-02-13T10:21:28.251Z,37.35
2023-02-13T10:24:12.081Z,38.15
2023-02-13T10:26:43.111Z,36.80
2023-02-13T10:29:41.546Z,28.95
2023-02-13T10:32:18.541Z,34.38
2023-02-13T10:34:47.942Z,32.85
2023-02-13T10:37:21.868Z,38.67
2023-02-13T10:39:51.492Z,37.75
2023-02-13T10:42:43.392Z,27.15
2023-02-13T10:45:21.143Z,26.75
2023-02-13T10:48:02.854Z,30.25
2023-02-13T10:50:46.946Z,34.00
2023-02-13T10:53:36.744Z,32.65
2023-02-13T10:56:04.217Z,36.85
2023-02-13T10:58:56.448Z,28.30
2023-02-13T11:01:37.627Z,31.85
2023-02-13T11:04:09.675Z,29.17
2023-02-13T11:06:42.464Z,30.08
2023-02-13T11:09:10.668Z,33.88
2023-02-13T11:11:40.683Z,27.60
2023-02-13T11:14:09.973Z,27.45
2023-02-13T11:16:51.688Z,28.42
2023-02-13T11:19:46.974Z,30.48
2023-02-13T11:22:26.868Z,30.95
2023-02-13T11:24:58.614Z,31.70
2023-02-13T11:27:39.871Z,30.02
2023-02-13T11:30:31.533Z,27.02
2023-02-13T11:33:00.337Z,33.35
2023-02-13T11:35:34.990Z,33.05
2023-02-13T11:38:16.218Z,31.35
2023-02-13T11:40:47.841Z,33.83
2023-02-13T11:43:20.064Z,28.73
2023-02-13T11:45:47.657Z,30.60
2023-02-13T11:48:23.078Z,32.30
2023-02-13T11:50:56.124Z,31.40
2023-02-13T11:53:27.377Z,33.13
2023-02-13T11:56:11.787Z,33.67
2023-02-13T11:58:40.217Z,35.80
2023-02-13T12:01:19.991Z,28.20
2023-02-13T12:04:18.150Z,27.75
2023-02-13T12:07:17.970Z,30.02
2023-02-13T12:09:48.947Z,30.70
2023-02-13T12:12:28.899Z,28.58
2023-02-13T12:14:57.303Z,31.75
2023-02-13T12:17:32.091Z,27.35
2023-02-13T12:20:00.726Z,29.90
2023-02-13T12:22:34.966Z,30.90
2023-02-13T12:25:20.194Z,31.50
2023-02-13T12:28:21.029Z,33.78
2023-02-13T12:31:10.494Z,30.73
2023-02-13T12:33:56.452Z,30.45
2023-02-13T12:36:47.178Z,28.67
2023-02-13T12:39:39.322Z,30.00
2023-02-13T12:42:22.067Z,29.08
2023-02-13T12:45:11.374Z,27.92
2023-02-13T12:47:57.351Z,31.50
2023-02-13T12:51:15.329Z,31.90
2023-02-13T12:54:07.505Z,29.83
2023-02-13T12:56:57.970Z,29.92
2023-02-13T12:59:43.932Z,27.75
2023-02-13T13:02:44.377Z,27.88
2023-02-13T13:05:43.353Z,26.55
2023-02-13T13:08:21.524Z,31.33
2023-02-13T13:11:16.758Z,30.85
2023-02-13T13:14:24.373Z,28.67
2023-02-13T13:17:06.390Z,38.28
2023-02-13T13:20:08.986Z,35.83
2023-02-13T13:22:52.569Z,35.30
2023-02-13T13:25:28.219Z,33.47
2023-02-13T13:28:12.066Z,39.20
2023-02-13T13:30:42.497Z,30.45
2023-02-13T13:33:21.823Z,29.02
2023-02-13T13:36:08.365Z,33.05
2023-02-13T13:38:57.006Z,34.60
2023-02-13T13:41:39.487Z,25.75
2023-02-13T13:47:00.153Z,31.15
2023-02-13T13:49:50.430Z,28.92
2023-02-13T13:52:27.041Z,31.67
2023-02-13T13:54:55.811Z,30.92
2023-02-13T13:57:41.530Z,28.67
2023-02-13T14:00:09.021Z,30.98
2023-02-13T14:02:43.932Z,40.10
2023-02-13T14:05:30.874Z,31.77
2023-02-13T14:07:58.306Z,29.58
2023-02-13T14:10:59.740Z,35.58
2023-02-13T14:13:33.038Z,33.63
2023-02-13T14:16:00.930Z,31.13
2023-02-13T14:18:30.106Z,32.33
2023-02-13T14:21:02.636Z,33.67
2023-02-13T14:23:34.874Z,34.67
2023-02-13T14:26:17.276Z,31.88
2023-02-13T14:31:24.193Z,29.98
2023-02-13T14:34:15.110Z,31.95
2023-02-13T14:36:46.023Z,37.65
2023-02-13T14:39:30.879Z,32.00
2023-02-13T14:42:23.355Z,36.05
2023-02-13T14:44:58.471Z,34.40
2023-02-13T14:47:30.385Z,31.85
2023-02-13T14:50:01.199Z,36.40
2023-02-13T14:52:43.270Z,29.33
2023-02-13T14:55:17.811Z,42.40
2023-02-13T14:57:53.110Z,36.63
2023-02-13T15:00:35.198Z,81.13
2023-02-13T15:03:24.577Z,78.38
2023-02-13T15:05:56.417Z,44.55
2023-02-13T15:08:28.903Z,123.63
2023-02-13T15:10:57.619Z,36.95
2023-02-13T15:13:31.462Z,38.55
2023-02-13T15:16:06.985Z,54.50
2023-02-13T15:18:55.408Z,48.95
2023-02-13T15:21:33.043Z,68.78
2023-02-13T15:24:00.496Z,36.10
2023-02-13T15:26:29.228Z,32.13
2023-02-13T15:29:09.137Z,32.47
2023-02-13T15:31:39.036Z,42.15
2023-02-13T15:34:25.510Z,54.53
2023-02-13T15:36:53.907Z,35.00
2023-02-13T15:39:29.071Z,34.95
2023-02-13T15:41:59.719Z,34.15
2023-02-13T15:44:36.812Z,34.25
2023-02-13T15:47:31.580Z,38.40
2023-02-13T15:49:59.415Z,38.58
2023-02-13T15:52:34.529Z,36.33
2023-02-13T15:55:02.127Z,32.78
2023-02-13T15:57:30.062Z,32.90
2023-02-13T16:00:00.340Z,32.63
2023-02-13T16:02:50.423Z,39.88
2023-02-13T16:05:29.429Z,33.70
2023-02-13T16:08:29.788Z,43.72
2023-02-13T16:11:27.161Z,37.08
2023-02-13T16:14:00.557Z,35.78
2023-02-13T16:16:30.704Z,42.47
2023-02-13T16:18:58.404Z,42.47
2023-02-13T16:21:29.288Z,40.90
2023-02-13T16:24:07.113Z,37.65
2023-02-13T16:26:42.527Z,39.33
2023-02-13T16:29:16.068Z,43.97
2023-02-13T16:31:43.698Z,42.90
2023-02-13T16:34:29.515Z,49.45
2023-02-13T16:36:57.193Z,45.70
2023-02-13T16:39:30.513Z,44.38
2023-02-13T16:42:01.599Z,43.67
2023-02-13T16:44:33.484Z,37.95
2023-02-13T16:47:03.886Z,43.42
2023-02-13T16:49:36.199Z,39.10
2023-02-13T16:52:12.506Z,39.13
2023-02-13T16:55:00.469Z,41.97
2023-02-13T16:57:33.853Z,46.38
2023-02-13T17:00:28.189Z,41.20
2023-02-13T17:02:55.596Z,45.83
2023-02-13T17:05:27.846Z,43.95
2023-02-13T17:10:35.822Z,45.20
2023-02-13T17:13:11.579Z,44.60
2023-02-13T17:15:44.066Z,45.75
2023-02-13T17:18:11.553Z,53.72
2023-02-13T17:20:43.138Z,52.15
2023-02-13T17:23:21.155Z,47.50
2023-02-13T17:25:49.773Z,51.78
2023-02-13T17:28:21.283Z,51.80
2023-02-13T17:30:51.452Z,60.55
2023-02-13T17:33:22.981Z,56.60
2023-02-13T17:35:51.501Z,52.53
2023-02-13T17:38:19.038Z,54.13
2023-02-13T17:40:46.892Z,49.75
2023-02-13T17:43:17.145Z,58.75
2023-02-13T17:45:46.155Z,53.90
2023-02-13T17:48:13.654Z,58.97
2023-02-13T17:50:41.355Z,52.65
2023-02-13T17:53:23.978Z,63.90
2023-02-13T17:55:52.513Z,54.08
2023-02-13T17:58:20.073Z,50.05
2023-02-13T18:00:47.671Z,64.78
2023-02-13T18:03:15.293Z,58.35
2023-02-13T18:05:42.798Z,55.55
2023-02-13T18:08:10.389Z,62.25
2023-02-13T18:10:39.550Z,65.57
2023-02-13T18:13:07.301Z,59.17
2023-02-13T18:15:39.271Z,60.22
2023-02-13T18:18:07.067Z,67.25
2023-02-13T18:20:34.709Z,60.17
2023-02-13T18:23:02.488Z,66.95
2023-02-13T18:25:30.006Z,67.85
2023-02-13T18:27:57.461Z,66.38
2023-02-13T18:30:25.245Z,60.78
2023-02-13T18:32:54.749Z,61.47
2023-02-13T18:35:23.419Z,60.33
2023-02-13T18:37:51.610Z,77.47
2023-02-13T18:40:19.617Z,64.68
2023-02-13T18:42:47.090Z,64.38
2023-02-13T18:45:14.541Z,66.38
2023-02-13T18:47:42.165Z,55.92
2023-02-13T18:50:10.265Z,56.53
2023-02-13T18:52:37.792Z,68.22
2023-02-13T18:55:07.120Z,63.33
2023-02-13T18:57:34.986Z,60.38
2023-02-13T19:00:04.585Z,58.35
2023-02-13T19:02:33.436Z,55.70
2023-02-13T19:05:01.419Z,58.03
2023-02-13T19:07:28.958Z,59.38
2023-02-13T19:09:56.592Z,60.35
2023-02-13T19:12:24.264Z,56.50
2023-02-13T19:14:51.774Z,58.08
2023-02-13T19:17:19.219Z,57.15
2023-02-13T19:19:48.729Z,54.90
2023-02-13T19:22:16.348Z,55.70
2023-02-13T19:24:44.139Z,67.90
2023-02-13T19:27:11.663Z,54.75
2023-02-13T19:29:39.221Z,56.42
2023-02-13T19:32:06.749Z,61.08
2023-02-13T19:34:34.671Z,55.45
2023-02-13T19:37:02.151Z,52.53
2023-02-13T19:39:29.546Z,56.65
2023-02-13T19:41:57.197Z,62.45
2023-02-13T19:44:24.759Z,54.75
2023-02-13T19:46:52.252Z,59.97
2023-02-13T19:49:22.347Z,48.45
2023-02-13T19:51:50.336Z,51.08
2023-02-13T19:54:17.794Z,55.22
2023-02-13T19:56:45.380Z,54.92
2023-02-13T19:59:13.580Z,58.10
2023-02-13T20:01:42.916Z,59.95
2023-02-13T20:04:11.856Z,57.60
2023-02-13T20:06:40.037Z,55.28
2023-02-13T20:09:11.378Z,58.63
2023-02-13T20:11:41.378Z,45.65
2023-02-13T20:14:14.609Z,57.70
2023-02-13T20:16:43.011Z,60.42
2023-02-13T20:19:12.209Z,61.10
2023-02-13T20:21:41.529Z,61.63
2023-02-13T20:24:10.621Z,66.68
2023-02-13T20:26:39.007Z,65.43
2023-02-13T20:29:06.991Z,63.25
2023-02-13T20:31:34.934Z,61.25
2023-02-13T20:34:05.459Z,62.08
2023-02-13T20:36:33.384Z,59.25
2023-02-13T20:39:03.039Z,66.85
2023-02-13T20:41:33.503Z,65.50
2023-02-13T20:44:12.652Z,67.85
2023-02-13T20:46:41.453Z,65.00
2023-02-13T20:49:11.741Z,57.90
2023-02-13T20:51:39.265Z,61.58
2023-02-13T20:54:06.807Z,71.13
2023-02-13T20:56:34.326Z,79.22
2023-02-13T20:59:03.260Z,67.90
2023-02-13T21:01:40.367Z,66.43
2023-02-13T21:04:10.184Z,67.40
2023-02-13T21:06:38.392Z,67.88
2023-02-13T21:09:08.540Z,69.72
2023-02-13T21:11:37.769Z,72.05
2023-02-13T21:14:05.932Z,71.15
2023-02-13T21:16:37.444Z,66.25
2023-02-13T21:19:09.560Z,67.95
2023-02-13T21:24:08.545Z,72.63
2023-02-13T21:26:36.524Z,86.03
2023-02-13T21:29:04.629Z,77.85
2023-02-13T21:31:38.085Z,79.32
2023-02-13T21:34:08.549Z,78.20
2023-02-13T21:36:39.062Z,67.30
2023-02-13T21:39:08.701Z,75.68
2023-02-13T21:41:39.440Z,70.70
2023-02-13T21:44:07.056Z,73.18
2023-02-13T21:46:34.681Z,64.57
2023-02-13T21:49:04.584Z,73.22
2023-02-13T21:51:35.532Z,74.82
2023-02-13T21:54:04.025Z,66.05
2023-02-13T21:56:37.770Z,74.32
2023-02-13T21:59:06.075Z,68.35
2023-02-13T22:01:50.114Z,67.40
2023-02-13T22:04:18.289Z,67.68
2023-02-13T22:06:49.379Z,66.57
2023-02-13T22:09:17.979Z,63.13
2023-02-13T22:11:45.704Z,66.75
2023-02-13T22:14:17.013Z,66.65
2023-02-13T22:16:45.186Z,52.30
2023-02-13T22:19:14.940Z,68.82
2023-02-13T22:21:43.259Z,66.22
2023-02-13T22:24:11.638Z,71.03
2023-02-13T22:26:41.647Z,75.18
2023-02-13T22:29:11.576Z,70.57
2023-02-13T22:31:39.212Z,67.28
2023-02-13T22:34:07.192Z,63.33
2023-02-13T22:36:40.199Z,62.83
2023-02-13T22:39:09.750Z,64.45
2023-02-13T22:41:37.778Z,67.55
2023-02-13T22:44:05.697Z,67.65
2023-02-13T22:46:34.267Z,67.28
2023-02-13T22:49:02.181Z,69.20
2023-02-13T22:51:33.089Z,65.35
2023-02-13T22:54:00.712Z,66.05
2023-02-13T22:56:30.293Z,71.38
2023-02-13T22:58:58.336Z,61.45
2023-02-13T23:01:28.401Z,62.00
2023-02-13T23:03:56.372Z,61.38
2023-02-13T23:06:24.322Z,61.90
2023-02-13T23:08:54.850Z,56.60
2023-02-13T23:11:44.211Z,51.33
2023-02-13T23:14:12.501Z,52.33
2023-02-13T23:16:59.929Z,56.58
2023-02-13T23:19:27.812Z,55.92
2023-02-13T23:21:55.710Z,59.42
2023-02-13T23:24:23.526Z,51.38
2023-02-13T23:26:51.025Z,49.65
2023-02-13T23:29:18.557Z,46.10
2023-02-13T23:31:46.061Z,51.03
2023-02-13T23:34:13.587Z,47.60
2023-02-13T23:36:41.020Z,49.03
2023-02-13T23:39:08.509Z,47.70
2023-02-13T23:41:36.028Z,49.28
2023-02-13T23:44:03.519Z,47.70
2023-02-13T23:46:31.376Z,43.40
2023-02-13T23:48:58.887Z,45.17
2023-02-13T23:51:26.413Z,43.78
2023-02-13T23:53:56.265Z,45.50
2023-02-13T23:56:25.123Z,46.40
2023-02-13T23:58:52.873Z,44.42
